Washington, Nebraska
Current Conditions -  °F | °C
As of 10:15 AM on Sunday 23 Nov 2014 (Local Time) from KBTA Reporting Station
Overcast Overcast  
Wind Chill:   Ceiling: 1700
Heat Index:   Visibility: 10mi
Dew Point:   Wind: 16mph
Humidity: 79%   Direction: 310°NW
Pressure: 29.48"   Gusts: 23mph
Location:  41.4°N, 96.21°W
Report Text: KBTA 231615Z AUTO 31014G20KT 10SM OVC017 09/06 A2948 RMK AO2 T00900056
Loading
Personal Weather Stations






























Interactive Weather Map New forecast layout! Learn more

10-Day Weather Forecast

Advertisements
Track Severe Weather on mobile